createdAt,value
2023-02-14T00:01:55.658Z,60865.75
2023-02-14T00:04:24.350Z,60868.84
2023-02-14T00:06:54.365Z,60859.38
2023-02-14T00:09:24.322Z,60849.22
2023-02-14T00:11:52.968Z,60854.44
2023-02-14T00:14:39.151Z,60853.50
2023-02-14T00:17:10.664Z,60859.25
2023-02-14T00:19:39.653Z,60845.75
2023-02-14T00:22:09.725Z,60848.97
2023-02-14T00:24:38.488Z,60842.56
2023-02-14T00:27:07.262Z,60833.50
2023-02-14T00:29:36.153Z,60830.44
2023-02-14T00:32:05.328Z,60817.34
2023-02-14T00:34:36.605Z,60822.81
2023-02-14T00:37:05.620Z,60814.53
2023-02-14T00:39:35.752Z,60804.16
2023-02-14T00:42:07.703Z,60797.50
2023-02-14T00:44:36.339Z,60799.91
2023-02-14T00:47:04.985Z,60809.38
2023-02-14T00:49:33.701Z,60810.03
2023-02-14T00:52:02.455Z,60812.69
2023-02-14T00:54:34.040Z,60819.63
2023-02-14T00:57:02.453Z,60802.16
2023-02-14T00:59:31.009Z,60800.56
2023-02-14T01:01:59.613Z,60800.03
2023-02-14T01:04:28.263Z,60793.63
2023-02-14T01:06:56.885Z,60786.56
2023-02-14T01:09:25.388Z,60774.03
2023-02-14T01:11:55.272Z,60774.44
2023-02-14T01:14:23.940Z,60779.78
2023-02-14T01:16:52.391Z,60773.25
2023-02-14T01:19:21.024Z,60779.66
2023-02-14T01:21:49.473Z,60778.28
2023-02-14T01:24:18.049Z,60770.84
2023-02-14T01:26:46.563Z,60768.06
2023-02-14T01:29:16.591Z,60765.50
2023-02-14T01:31:45.806Z,60763.78
2023-02-14T01:34:14.314Z,60756.72
2023-02-14T01:36:42.728Z,60759.66
2023-02-14T01:39:15.512Z,60759.00
2023-02-14T01:41:49.600Z,60752.19
2023-02-14T01:45:03.532Z,60749.94
2023-02-14T01:47:40.164Z,60759.91
2023-02-14T01:50:14.948Z,60747.25
2023-02-14T01:52:48.079Z,60751.38
2023-02-14T01:55:20.708Z,60753.53
2023-02-14T01:57:53.179Z,60746.06
2023-02-14T02:00:41.229Z,60741.94
2023-02-14T02:03:12.025Z,60747.13
2023-02-14T02:05:48.806Z,60734.59
2023-02-14T02:08:18.428Z,60744.59
2023-02-14T02:10:46.909Z,60740.31
2023-02-14T02:13:20.108Z,60731.94
2023-02-14T02:16:03.644Z,60732.22
2023-02-14T02:18:43.508Z,60734.34
2023-02-14T02:22:02.533Z,60729.03
2023-02-14T02:24:45.964Z,60728.59
2023-02-14T02:27:38.613Z,60721.81
2023-02-14T02:31:01.795Z,60728.47
2023-02-14T02:34:37.167Z,60722.09
2023-02-14T02:37:26.743Z,60719.41
2023-02-14T02:40:18.819Z,60776.44
2023-02-14T02:42:56.612Z,60832.44
2023-02-14T02:45:35.616Z,60863.25
2023-02-14T02:48:10.667Z,60855.09
2023-02-14T02:51:12.564Z,60849.50
2023-02-14T02:53:46.842Z,60845.34
2023-02-14T02:56:38.451Z,60823.91
2023-02-14T02:59:18.401Z,60784.03
2023-02-14T03:02:04.951Z,60762.72
2023-02-14T03:04:53.326Z,60738.59
2023-02-14T03:07:39.451Z,60712.22
2023-02-14T03:10:15.801Z,60713.56
2023-02-14T03:13:32.481Z,60712.63
2023-02-14T03:16:35.060Z,60700.91
2023-02-14T03:19:34.186Z,60699.97
2023-02-14T03:22:09.326Z,60685.47
2023-02-14T03:24:49.199Z,60680.53
2023-02-14T03:27:27.359Z,60664.69
2023-02-14T03:30:04.523Z,60668.81
2023-02-14T03:32:40.950Z,60654.69
2023-02-14T03:35:19.718Z,60657.63
2023-02-14T03:37:56.223Z,60640.75
2023-02-14T03:40:31.029Z,60625.44
2023-02-14T03:43:09.886Z,60625.28
2023-02-14T03:45:44.568Z,60619.31
2023-02-14T03:48:15.987Z,60616.78
2023-02-14T03:50:47.809Z,60620.38
2023-02-14T03:53:22.381Z,60623.06
2023-02-14T03:56:01.232Z,60615.06
2023-02-14T03:58:36.227Z,60617.72
2023-02-14T04:01:12.748Z,60612.94
2023-02-14T04:03:44.190Z,60609.34
2023-02-14T04:06:12.778Z,60602.81
2023-02-14T04:08:41.192Z,60600.16
2023-02-14T04:11:09.758Z,60609.22
2023-02-14T04:13:40.214Z,60604.00
2023-02-14T04:16:09.379Z,60598.28
2023-02-14T04:18:55.279Z,60608.94
2023-02-14T04:21:23.814Z,60602.28
2023-02-14T04:23:52.585Z,60598.03
2023-02-14T04:26:21.187Z,60583.91
2023-02-14T04:28:51.035Z,60573.81
2023-02-14T04:31:19.589Z,60576.88
2023-02-14T04:33:48.241Z,60561.03
2023-02-14T04:36:16.860Z,60561.84
2023-02-14T04:38:45.222Z,60555.59
2023-02-14T04:41:13.823Z,60545.09
2023-02-14T04:43:42.451Z,60536.97
2023-02-14T04:46:12.379Z,60526.75
2023-02-14T04:48:40.948Z,60522.09
2023-02-14T04:51:09.500Z,60531.00
2023-02-14T04:53:40.350Z,60535.25
2023-02-14T04:56:09.389Z,60527.41
2023-02-14T04:58:38.599Z,60543.78
2023-02-14T05:01:07.300Z,60527.41
2023-02-14T05:03:37.346Z,60531.25
2023-02-14T05:06:06.351Z,60534.22
2023-02-14T05:08:35.059Z,60532.75
2023-02-14T05:11:03.631Z,60539.50
2023-02-14T05:13:32.220Z,60535.78
2023-02-14T05:16:01.482Z,60540.84
2023-02-14T05:18:29.995Z,60542.44
2023-02-14T05:21:00.378Z,60553.75
2023-02-14T05:23:33.028Z,60551.22
2023-02-14T05:26:01.508Z,60554.00
2023-02-14T05:28:29.980Z,60542.84
2023-02-14T05:30:59.225Z,60553.06
2023-02-14T05:33:28.431Z,60541.66
2023-02-14T05:35:56.868Z,60539.78
2023-02-14T05:38:26.777Z,60538.06
2023-02-14T05:40:55.444Z,60562.50
2023-02-14T05:43:23.893Z,60557.84
2023-02-14T05:45:52.383Z,60559.72
2023-02-14T05:48:21.057Z,60564.53
2023-02-14T05:50:49.745Z,60571.69
2023-02-14T05:53:19.008Z,60584.88
2023-02-14T05:55:49.079Z,60596.97
2023-02-14T05:58:17.502Z,60599.22
2023-02-14T06:00:46.047Z,60584.88
2023-02-14T06:03:14.526Z,60584.88
2023-02-14T06:05:42.959Z,60590.06
2023-02-14T06:08:11.512Z,60596.56
2023-02-14T06:10:39.952Z,60590.84
2023-02-14T06:13:10.723Z,60606.53
2023-02-14T06:15:39.687Z,60607.59
2023-02-14T06:18:08.399Z,60590.59
2023-02-14T06:20:37.224Z,60603.34
2023-02-14T06:23:05.822Z,60610.41
2023-02-14T06:25:34.711Z,60619.19
2023-02-14T06:28:03.315Z,60617.97
2023-02-14T06:30:33.314Z,60630.22
2023-02-14T06:33:02.040Z,60632.09
2023-02-14T06:35:30.573Z,60611.06
2023-02-14T06:37:58.963Z,60618.25
2023-02-14T06:40:27.299Z,60622.75
2023-02-14T06:42:55.691Z,60625.72
2023-02-14T06:45:24.110Z,60634.22
2023-02-14T06:47:53.825Z,60630.63
2023-02-14T06:50:22.461Z,60636.59
2023-02-14T06:52:51.471Z,60635.94
2023-02-14T06:55:20.308Z,60631.69
2023-02-14T06:57:48.666Z,60628.50
2023-02-14T07:00:18.334Z,60638.75
2023-02-14T07:02:47.058Z,60637.44
2023-02-14T07:05:19.164Z,60652.31
2023-02-14T07:07:47.720Z,60633.94
2023-02-14T07:10:17.042Z,60626.38
2023-02-14T07:12:45.728Z,60624.25
2023-02-14T07:15:15.601Z,60642.72
2023-02-14T07:17:44.431Z,60636.34
2023-02-14T07:20:15.896Z,60635.03
2023-02-14T07:22:44.311Z,60625.56
2023-02-14T07:25:15.186Z,60618.38
2023-02-14T07:27:45.600Z,60635.94
2023-02-14T07:30:15.497Z,60654.03
2023-02-14T07:32:43.920Z,60624.25
2023-02-14T07:35:14.942Z,60612.53
2023-02-14T07:37:44.999Z,60612.94
2023-02-14T07:40:15.334Z,60666.81
2023-02-14T07:42:44.229Z,60670.44
2023-02-14T07:45:21.672Z,60668.81
2023-02-14T07:47:51.779Z,60675.34
2023-02-14T07:50:21.317Z,60671.50
2023-02-14T07:52:51.503Z,60647.00
2023-02-14T07:55:20.432Z,60639.53
2023-02-14T07:57:49.750Z,60640.75
2023-02-14T08:00:19.735Z,60645.94
2023-02-14T08:02:49.511Z,60658.31
2023-02-14T08:05:18.549Z,60658.31
2023-02-14T08:07:47.358Z,60655.09
2023-02-14T08:10:17.508Z,60662.69
2023-02-14T08:13:01.300Z,60655.09
2023-02-14T08:15:49.920Z,60668.81
2023-02-14T08:18:19.293Z,60662.97
2023-02-14T08:20:49.868Z,60656.84
2023-02-14T08:23:20.323Z,60660.31
2023-02-14T08:25:52.891Z,60660.44
2023-02-14T08:28:22.058Z,60663.22
2023-02-14T08:30:51.111Z,60670.97
2023-02-14T08:33:19.858Z,60683.72
2023-02-14T08:35:48.452Z,60657.63
2023-02-14T08:38:16.957Z,60660.03
2023-02-14T08:40:45.463Z,60668.94
2023-02-14T08:43:15.673Z,60689.84
2023-02-14T08:45:44.176Z,60692.78
2023-02-14T08:48:13.946Z,60679.59
2023-02-14T08:50:42.800Z,60683.59
2023-02-14T08:53:13.361Z,60700.25
2023-02-14T08:55:42.234Z,60701.16
2023-02-14T08:58:10.721Z,60699.19
2023-02-14T09:00:40.755Z,60689.31
2023-02-14T09:03:10.665Z,60681.31
2023-02-14T09:05:39.245Z,60677.88
2023-02-14T09:08:07.855Z,60670.44
2023-02-14T09:10:36.300Z,60670.44
2023-02-14T09:13:04.780Z,60680.78
2023-02-14T09:15:33.203Z,60659.78
2023-02-14T09:18:03.094Z,60661.50
2023-02-14T09:20:31.553Z,60672.81
2023-02-14T09:22:59.967Z,60695.19
2023-02-14T09:25:28.435Z,60703.19
2023-02-14T09:27:56.800Z,60724.75
2023-02-14T09:30:25.236Z,60725.53
2023-02-14T09:32:54.860Z,60691.97
2023-02-14T09:35:42.034Z,60664.16
2023-02-14T09:38:18.446Z,60681.06
2023-02-14T09:40:48.339Z,60676.41
2023-02-14T09:43:24.528Z,60667.91
2023-02-14T09:45:56.654Z,60655.78
2023-02-14T09:48:30.630Z,60655.91
2023-02-14T09:51:04.946Z,60671.75
2023-02-14T09:53:37.229Z,60670.56
2023-02-14T09:56:17.501Z,60652.16
2023-02-14T09:58:53.221Z,60668.69
2023-02-14T10:01:28.157Z,60670.81
2023-02-14T10:04:19.426Z,60688.78
2023-02-14T10:06:52.783Z,60703.56
2023-02-14T10:09:37.654Z,60713.16
2023-02-14T10:12:11.868Z,60727.81
2023-02-14T10:14:41.427Z,60734.59
2023-02-14T10:17:16.632Z,60732.22
2023-02-14T10:19:49.955Z,60740.88
2023-02-14T10:22:23.242Z,60736.59
2023-02-14T10:24:57.462Z,60745.25
2023-02-14T10:27:34.582Z,60738.88
2023-02-14T10:30:03.725Z,60759.53
2023-02-14T10:32:41.369Z,60756.72
2023-02-14T10:35:25.910Z,60774.56
2023-02-14T10:38:10.260Z,60796.59
2023-02-14T10:41:22.146Z,60789.91
2023-02-14T10:44:02.747Z,60784.44
2023-02-14T10:46:40.018Z,60780.97
2023-02-14T10:49:27.163Z,60777.50
2023-02-14T10:52:04.319Z,60776.97
2023-02-14T10:54:40.770Z,60784.44
2023-02-14T10:57:16.105Z,60793.22
2023-02-14T10:59:52.662Z,60755.38
2023-02-14T11:02:26.399Z,60730.09
2023-02-14T11:04:56.241Z,60726.06
2023-02-14T11:07:24.817Z,60723.28
2023-02-14T11:09:54.617Z,60714.25
2023-02-14T11:12:38.413Z,60726.34
2023-02-14T11:15:22.056Z,60749.94
2023-02-14T11:17:51.985Z,60754.59
2023-02-14T11:20:31.399Z,60772.06
2023-02-14T11:23:00.103Z,60771.91
2023-02-14T11:25:31.801Z,60785.50
2023-02-14T11:28:04.270Z,60779.13
2023-02-14T11:30:37.080Z,60765.25
2023-02-14T11:33:06.209Z,60783.38
2023-02-14T11:35:35.060Z,60817.50
2023-02-14T11:38:06.268Z,60808.16
2023-02-14T11:40:38.624Z,60830.31
2023-02-14T11:43:21.404Z,60846.28
2023-02-14T11:45:50.639Z,60842.03
2023-02-14T11:48:36.812Z,60846.97
2023-02-14T11:51:10.194Z,60862.97
2023-02-14T11:53:46.556Z,60873.91
2023-02-14T11:56:18.042Z,60864.44
2023-02-14T11:58:52.489Z,60877.91
2023-02-14T12:01:26.301Z,60865.75
2023-02-14T12:03:57.727Z,60877.25
2023-02-14T12:06:28.123Z,60874.69
2023-02-14T12:09:25.993Z,60877.25
2023-02-14T12:11:58.908Z,60866.16
2023-02-14T12:14:31.504Z,60876.72
2023-02-14T12:17:07.103Z,60866.56
2023-02-14T12:19:45.765Z,60858.28
2023-02-14T12:22:18.608Z,60873.66
2023-02-14T12:25:00.111Z,60872.56
2023-02-14T12:27:35.628Z,60835.88
2023-02-14T12:30:14.295Z,60839.50
2023-02-14T12:32:50.300Z,60833.91
2023-02-14T12:35:22.332Z,60833.09
2023-02-14T12:38:05.171Z,60823.91
2023-02-14T12:40:46.718Z,60842.44
2023-02-14T12:43:48.036Z,60834.03
2023-02-14T12:46:31.426Z,60827.75
2023-02-14T12:49:57.697Z,60827.09
2023-02-14T12:52:54.212Z,60815.38
2023-02-14T12:55:42.129Z,60842.69
2023-02-14T12:58:27.215Z,60845.50
2023-02-14T13:01:21.709Z,60878.97
2023-02-14T13:04:41.044Z,60901.25
2023-02-14T13:07:22.473Z,60916.84
2023-02-14T13:09:59.726Z,60930.63
2023-02-14T13:12:38.291Z,60938.09
2023-02-14T13:15:21.946Z,60942.91
2023-02-14T13:17:54.874Z,60955.84
2023-02-14T13:20:41.694Z,60952.75
2023-02-14T13:23:17.549Z,60940.22
2023-02-14T13:25:52.935Z,60935.13
2023-02-14T13:28:22.033Z,60931.28
2023-02-14T13:30:51.775Z,60911.00
2023-02-14T13:33:35.072Z,60901.38
2023-02-14T13:36:08.250Z,60914.72
2023-02-14T13:38:45.245Z,60941.31
2023-02-14T13:41:15.250Z,60922.31
2023-02-14T13:43:56.285Z,60914.19
2023-02-14T13:46:50.228Z,60915.94
2023-02-14T13:49:37.901Z,60909.53
2023-02-14T13:52:07.819Z,60920.59
2023-02-14T13:54:44.198Z,60932.88
2023-02-14T13:57:34.060Z,60931.28
2023-02-14T14:00:41.746Z,60918.59
2023-02-14T14:03:16.875Z,60940.75
2023-02-14T14:06:07.657Z,60954.25
2023-02-14T14:08:49.386Z,60964.81
2023-02-14T14:11:57.217Z,60978.28
2023-02-14T14:14:36.506Z,60981.34
2023-02-14T14:17:25.974Z,60991.38
2023-02-14T14:19:57.941Z,60986.56
2023-02-14T14:22:27.910Z,60974.66
2023-02-14T14:25:02.609Z,60977.22
2023-02-14T14:27:34.922Z,60982.00
2023-02-14T14:30:08.361Z,60969.19
2023-02-14T14:32:39.634Z,60978.69
2023-02-14T14:35:20.663Z,60975.47
2023-02-14T14:37:52.129Z,60961.31
2023-02-14T14:40:28.806Z,60955.97
2023-02-14T14:43:03.149Z,60957.31
2023-02-14T14:45:32.700Z,60964.81
2023-02-14T14:48:09.167Z,60968.53
2023-02-14T14:50:39.940Z,60973.59
2023-02-14T14:53:15.708Z,60971.22
2023-02-14T14:55:51.944Z,60983.09
2023-02-14T14:58:37.456Z,60988.28
2023-02-14T15:01:07.501Z,60996.84
2023-02-14T15:03:36.113Z,60996.56
2023-02-14T15:06:19.056Z,61003.38
2023-02-14T15:08:49.253Z,61000.03
2023-02-14T15:11:35.902Z,60991.50
2023-02-14T15:14:06.459Z,60990.16
2023-02-14T15:16:42.378Z,60983.50
2023-02-14T15:19:17.265Z,60978.69
2023-02-14T15:21:47.504Z,60978.28
2023-02-14T15:24:18.569Z,60984.69
2023-02-14T15:26:50.148Z,60991.09
2023-02-14T15:29:25.862Z,60993.88
2023-02-14T15:31:55.419Z,60995.38
2023-02-14T15:34:26.704Z,60997.50
2023-02-14T15:37:03.515Z,60996.03
2023-02-14T15:39:39.345Z,60998.56
2023-02-14T15:42:25.875Z,61000.59
2023-02-14T15:45:19.258Z,61000.72
2023-02-14T15:47:50.287Z,61003.25
2023-02-14T15:50:24.205Z,60990.44
2023-02-14T15:52:57.434Z,60990.97
2023-02-14T15:55:28.883Z,60984.03
2023-02-14T15:58:01.883Z,60989.38
2023-02-14T16:00:31.723Z,60983.63
2023-02-14T16:03:03.855Z,60983.50
2023-02-14T16:05:32.307Z,60972.28
2023-02-14T16:08:05.176Z,60962.91
2023-02-14T16:10:35.142Z,60955.84
2023-02-14T16:13:08.657Z,60964.25
2023-02-14T16:15:38.840Z,60949.44
2023-02-14T16:18:20.647Z,60909.53
2023-02-14T16:20:51.298Z,60893.91
2023-02-14T16:23:25.388Z,60887.09
2023-02-14T16:25:57.345Z,60884.72
2023-02-14T16:28:30.483Z,60881.09
2023-02-14T16:31:03.184Z,60871.38
2023-02-14T16:33:35.808Z,60842.28
2023-02-14T16:36:09.476Z,60840.56
2023-02-14T16:38:44.566Z,60825.75
2023-02-14T16:41:21.700Z,60826.03
2023-02-14T16:43:51.089Z,60838.19
2023-02-14T16:46:22.351Z,60832.44
2023-02-14T16:48:52.455Z,60809.22
2023-02-14T16:51:23.859Z,60805.25
2023-02-14T16:53:55.150Z,60796.16
2023-02-14T16:56:29.878Z,60780.97
2023-02-14T16:58:58.693Z,60782.56
2023-02-14T17:01:27.385Z,60786.03
2023-02-14T17:03:55.742Z,60779.25
2023-02-14T17:06:28.686Z,60778.03
2023-02-14T17:09:00.914Z,60784.44
2023-02-14T17:11:32.526Z,60781.50
2023-02-14T17:14:01.181Z,60779.78
2023-02-14T17:16:32.412Z,60776.72
2023-02-14T17:19:03.320Z,60778.03
2023-02-14T17:21:32.034Z,60774.97
2023-02-14T17:24:01.857Z,60778.28
2023-02-14T17:26:30.248Z,60782.97
2023-02-14T17:28:58.654Z,60786.56
2023-02-14T17:31:28.629Z,60782.97
2023-02-14T17:33:57.698Z,60780.44
2023-02-14T17:36:26.482Z,60775.50
2023-02-14T17:38:55.885Z,60774.44
2023-02-14T17:41:29.265Z,60772.97
2023-02-14T17:44:00.358Z,60773.78
2023-02-14T17:46:30.210Z,60773.78
2023-02-14T17:49:01.834Z,60773.78
2023-02-14T17:51:30.904Z,60756.59
2023-02-14T17:53:59.441Z,60770.72
2023-02-14T17:56:29.352Z,60768.06
2023-02-14T17:58:57.808Z,60764.84
2023-02-14T18:01:31.560Z,60764.72
2023-02-14T18:04:00.022Z,60759.41
2023-02-14T18:06:28.478Z,60758.47
2023-02-14T18:08:57.724Z,60763.13
2023-02-14T18:11:30.010Z,60764.44
2023-02-14T18:13:59.745Z,60770.16
2023-02-14T18:16:28.653Z,60759.91
2023-02-14T18:18:57.134Z,60761.53
2023-02-14T18:21:25.538Z,60760.19
2023-02-14T18:23:53.913Z,60759.66
2023-02-14T18:26:22.324Z,60764.19
2023-02-14T18:28:52.081Z,60769.50
2023-02-14T18:31:21.193Z,60775.94
2023-02-14T18:33:51.350Z,60764.31
2023-02-14T18:36:24.168Z,60748.72
2023-02-14T18:38:52.724Z,60719.69
2023-02-14T18:41:22.372Z,60723.69
2023-02-14T18:43:52.662Z,60720.91
2023-02-14T18:46:23.866Z,60715.16
2023-02-14T18:48:53.036Z,60712.22
2023-02-14T18:51:23.983Z,60698.78
2023-02-14T18:53:52.908Z,60705.16
2023-02-14T18:56:23.995Z,60699.19
2023-02-14T18:58:59.276Z,60682.28
2023-02-14T19:01:30.562Z,60665.34
2023-02-14T19:04:00.695Z,60679.88
2023-02-14T19:06:32.370Z,60698.78
2023-02-14T19:09:01.502Z,60698.78
2023-02-14T19:11:33.882Z,60686.94
2023-02-14T19:14:09.401Z,60694.53
2023-02-14T19:16:42.229Z,60705.72
2023-02-14T19:19:11.386Z,60713.56
2023-02-14T19:21:39.715Z,60706.25
2023-02-14T19:24:09.400Z,60715.16
2023-02-14T19:26:40.923Z,60711.44
2023-02-14T19:29:14.280Z,60685.19
2023-02-14T19:31:45.114Z,60676.94
2023-02-14T19:34:19.198Z,60682.16
2023-02-14T19:36:48.970Z,60694.53
2023-02-14T19:39:19.081Z,60706.13
2023-02-14T19:41:48.829Z,60708.91
2023-02-14T19:44:19.935Z,60708.38
2023-02-14T19:46:49.037Z,60710.91
2023-02-14T19:49:20.081Z,60714.63
2023-02-14T19:51:51.305Z,60717.97
2023-02-14T19:54:21.926Z,60706.78
2023-02-14T19:56:50.451Z,60706.63
2023-02-14T19:59:22.721Z,60699.19
2023-02-14T20:01:52.645Z,60674.41
2023-02-14T20:04:23.866Z,60661.09
2023-02-14T20:06:53.169Z,60665.75
2023-02-14T20:09:24.018Z,60653.13
2023-02-14T20:11:54.613Z,60658.84
2023-02-14T20:14:26.603Z,60665.34
2023-02-14T20:16:57.695Z,60683.59
2023-02-14T20:19:29.497Z,60697.72
2023-02-14T20:21:57.996Z,60699.19
2023-02-14T20:24:30.388Z,60680.66
2023-02-14T20:27:00.484Z,60678.53
2023-02-14T20:29:30.546Z,60678.53
2023-02-14T20:32:03.653Z,60673.88
2023-02-14T20:34:32.289Z,60673.88
2023-02-14T20:37:00.786Z,60665.88
2023-02-14T20:39:32.226Z,60668.69
2023-02-14T20:42:01.106Z,60657.91
2023-02-14T20:44:31.210Z,60671.50
2023-02-14T20:46:59.950Z,60676.00
2023-02-14T20:49:31.313Z,60682.16
2023-02-14T20:52:00.687Z,60692.78
2023-02-14T20:54:31.003Z,60685.47
2023-02-14T20:56:59.431Z,60663.50
2023-02-14T20:59:28.814Z,60658.84
2023-02-14T21:02:00.071Z,60660.03
2023-02-14T21:04:29.895Z,60669.34
2023-02-14T21:07:00.248Z,60671.34
2023-02-14T21:09:28.849Z,60695.56
2023-02-14T21:11:58.457Z,60694.78
2023-02-14T21:14:27.153Z,60696.25
2023-02-14T21:16:55.641Z,60694.22
2023-02-14T21:19:27.847Z,60702.63
2023-02-14T21:21:56.366Z,60683.47
2023-02-14T21:24:25.185Z,60684.53
2023-02-14T21:26:53.587Z,60667.50
2023-02-14T21:29:22.456Z,60670.56
2023-02-14T21:31:50.996Z,60682.41
2023-02-14T21:34:19.776Z,60698.25
2023-02-14T21:36:49.619Z,60689.59
2023-02-14T21:39:19.077Z,60694.13
2023-02-14T21:41:47.512Z,60674.28
2023-02-14T21:44:40.329Z,60665.75
2023-02-14T21:47:07.853Z,60661.50
2023-02-14T21:49:53.793Z,60656.19
2023-02-14T21:52:23.654Z,60637.56
2023-02-14T21:54:52.633Z,60645.53
2023-02-14T21:57:21.135Z,60618.25
2023-02-14T21:59:49.643Z,60618.91
2023-02-14T22:02:18.213Z,60607.84
2023-02-14T22:04:47.138Z,60611.06
2023-02-14T22:07:17.786Z,60620.66
2023-02-14T22:09:47.664Z,60638.75
2023-02-14T22:12:16.179Z,60649.38
2023-02-14T22:14:44.562Z,60641.94
2023-02-14T22:17:12.997Z,60646.19
2023-02-14T22:19:41.577Z,60645.53
2023-02-14T22:22:10.103Z,60662.16
2023-02-14T22:24:38.804Z,60671.63
2023-02-14T22:27:08.715Z,60668.16
2023-02-14T22:29:37.376Z,60648.44
2023-02-14T22:32:06.580Z,60641.94
2023-02-14T22:34:35.475Z,60644.06
2023-02-14T22:37:03.985Z,60626.38
2023-02-14T22:39:32.466Z,60632.34
2023-02-14T22:42:05.391Z,60675.75
2023-02-14T22:44:35.196Z,60666.72
2023-02-14T22:47:03.678Z,60684.25
2023-02-14T22:49:32.250Z,60658.31
2023-02-14T22:52:00.606Z,60660.03
2023-02-14T22:54:29.258Z,60636.47
2023-02-14T22:56:57.590Z,60638.22
2023-02-14T22:59:28.314Z,60643.38
2023-02-14T23:01:58.169Z,60653.91
2023-02-14T23:04:29.420Z,60668.94
2023-02-14T23:06:57.954Z,60668.28
2023-02-14T23:09:26.705Z,60671.50
2023-02-14T23:11:55.173Z,60664.56
2023-02-14T23:14:41.005Z,60663.63
2023-02-14T23:17:34.406Z,60674.16
2023-02-14T23:20:20.481Z,60660.03
2023-02-14T23:22:49.373Z,60675.34
2023-02-14T23:25:17.942Z,60664.03
2023-02-14T23:27:48.409Z,60661.09
2023-02-14T23:30:19.541Z,60653.00
2023-02-14T23:32:49.370Z,60649.38
2023-02-14T23:35:18.088Z,60653.50
2023-02-14T23:37:46.637Z,60637.13
2023-02-14T23:40:15.243Z,60632.09
2023-02-14T23:42:43.787Z,60625.16
2023-02-14T23:45:29.654Z,60600.00
2023-02-14T23:48:03.609Z,60608.16
2023-02-14T23:50:32.406Z,60600.94
2023-02-14T23:53:01.231Z,60611.06
2023-02-14T23:55:29.763Z,60614.78
2023-02-14T23:57:58.178Z,60621.44
